createdAt,value
2017-08-15T00:00:50.234Z,92.81
2017-08-15T00:01:50.361Z,92.23
2017-08-15T00:02:50.337Z,91.94
2017-08-15T00:03:50.397Z,91.85
2017-08-15T00:04:50.446Z,91.66
2017-08-15T00:05:50.493Z,91.66
2017-08-15T00:06:50.836Z,91.75
2017-08-15T00:07:50.598Z,92.04
2017-08-15T00:08:50.651Z,91.46
2017-08-15T00:09:50.702Z,92.71
2017-08-15T00:10:50.754Z,93.00
2017-08-15T00:11:50.809Z,91.75
2017-08-15T00:12:50.923Z,91.94
2017-08-15T00:13:50.914Z,92.71
2017-08-15T00:14:50.961Z,91.85
2017-08-15T00:15:51.564Z,91.66
2017-08-15T00:16:51.072Z,92.52
2017-08-15T00:17:51.188Z,91.66
2017-08-15T00:18:51.172Z,91.94
2017-08-15T00:19:51.228Z,92.91
2017-08-15T00:20:51.280Z,92.33
2017-08-15T00:21:51.329Z,93.10
2017-08-15T00:22:51.449Z,92.91
2017-08-15T00:23:51.435Z,93.38
2017-08-15T00:24:51.486Z,92.33
2017-08-15T00:25:51.539Z,92.91
2017-08-15T00:26:51.590Z,92.43
2017-08-15T00:27:51.711Z,92.23
2017-08-15T00:28:51.699Z,92.71
2017-08-15T00:29:51.745Z,93.29
2017-08-15T00:30:51.803Z,92.43
2017-08-15T00:31:51.849Z,92.91
2017-08-15T00:32:51.975Z,93.00
2017-08-15T00:33:51.955Z,92.47
2017-08-15T00:34:52.009Z,92.23
2017-08-15T00:35:52.061Z,92.71
2017-08-15T00:36:52.113Z,91.85
2017-08-15T00:37:52.460Z,92.71
2017-08-15T00:38:52.219Z,92.13
2017-08-15T00:39:52.268Z,92.43
2017-08-15T00:40:52.324Z,92.23
2017-08-15T00:41:52.377Z,92.91
2017-08-15T00:42:52.432Z,93.10
2017-08-15T00:43:52.547Z,93.38
2017-08-15T00:44:52.530Z,92.71
2017-08-15T00:45:52.583Z,94.25
2017-08-15T00:46:52.633Z,94.30
2017-08-15T00:47:55.319Z,94.25
2017-08-15T00:48:57.570Z,93.91
2017-08-15T00:49:55.328Z,94.30
2017-08-15T00:50:55.469Z,94.59
2017-08-15T00:51:55.399Z,94.59
2017-08-15T00:52:55.636Z,95.36
2017-08-15T00:53:57.460Z,95.17
2017-08-15T00:54:55.679Z,95.36
2017-08-15T00:55:55.760Z,95.17
2017-08-15T00:56:56.687Z,96.03
2017-08-15T00:57:55.749Z,94.98
2017-08-15T00:58:53.887Z,94.78
2017-08-15T00:59:54.143Z,94.78
2017-08-15T01:00:53.366Z,94.98
2017-08-15T01:01:53.417Z,94.40
2017-08-15T01:02:53.470Z,94.78
2017-08-15T01:03:53.584Z,94.88
2017-08-15T01:04:53.574Z,94.78
2017-08-15T01:05:53.624Z,94.59
2017-08-15T01:06:56.554Z,95.17
2017-08-15T01:07:54.242Z,94.73
2017-08-15T01:08:54.007Z,94.83
2017-08-15T01:09:54.507Z,94.78
2017-08-15T01:10:54.877Z,94.11
2017-08-15T01:11:54.131Z,94.30
2017-08-15T01:12:54.358Z,95.17
2017-08-15T01:13:54.110Z,94.49
2017-08-15T01:14:54.440Z,94.59
2017-08-15T01:15:56.566Z,94.98
2017-08-15T01:16:54.406Z,94.11
2017-08-15T01:17:54.807Z,94.59
2017-08-15T01:18:55.466Z,93.91
2017-08-15T01:19:55.390Z,94.59
2017-08-15T01:20:54.767Z,94.26
2017-08-15T01:21:56.779Z,94.78
2017-08-15T01:22:54.510Z,94.35
2017-08-15T01:23:56.196Z,94.83
2017-08-15T01:24:56.049Z,95.12
2017-08-15T01:25:55.401Z,94.83
2017-08-15T01:26:55.843Z,95.79
2017-08-15T01:27:55.558Z,95.98
2017-08-15T01:28:58.254Z,95.70
2017-08-15T01:29:56.237Z,95.79
2017-08-15T01:30:57.346Z,96.75
2017-08-15T01:31:56.024Z,96.08
2017-08-15T01:32:56.251Z,95.98
2017-08-15T01:33:56.666Z,95.60
2017-08-15T01:34:57.354Z,95.03
2017-08-15T01:35:56.282Z,95.70
2017-08-15T01:36:56.278Z,94.73
2017-08-15T01:37:56.600Z,93.77
2017-08-15T01:38:56.204Z,94.06
2017-08-15T01:39:59.442Z,94.01
2017-08-15T01:40:56.445Z,93.53
2017-08-15T01:41:58.167Z,93.91
2017-08-15T01:42:57.071Z,93.24
2017-08-15T01:43:56.767Z,93.82
2017-08-15T01:44:56.501Z,93.91
2017-08-15T01:45:56.733Z,94.06
2017-08-15T01:46:56.486Z,94.26
2017-08-15T01:47:56.850Z,94.73
2017-08-15T01:48:57.692Z,94.26
2017-08-15T01:49:57.565Z,94.64
2017-08-15T01:50:58.092Z,94.06
2017-08-15T01:51:56.871Z,94.54
2017-08-15T01:52:56.622Z,94.26
2017-08-15T01:53:56.790Z,93.87
2017-08-15T01:54:59.974Z,94.16
2017-08-15T01:55:57.950Z,93.96
2017-08-15T01:56:56.401Z,94.45
2017-08-15T01:57:57.336Z,93.19
2017-08-15T01:58:56.381Z,94.16
2017-08-15T01:59:56.430Z,93.01
2017-08-15T02:00:56.548Z,92.81
2017-08-15T02:01:56.533Z,93.10
2017-08-15T02:02:56.582Z,94.06
2017-08-15T02:03:56.639Z,93.49
2017-08-15T02:04:56.691Z,93.87
2017-08-15T02:05:56.809Z,93.10
2017-08-15T02:06:56.800Z,93.96
2017-08-15T02:07:56.849Z,94.06
2017-08-15T02:08:56.897Z,94.26
2017-08-15T02:09:56.953Z,93.96
2017-08-15T02:10:57.065Z,94.54
2017-08-15T02:11:57.054Z,94.16
2017-08-15T02:12:57.105Z,94.26
2017-08-15T02:13:57.157Z,93.96
2017-08-15T02:14:57.209Z,93.96
2017-08-15T02:15:57.334Z,94.26
2017-08-15T02:16:57.312Z,93.87
2017-08-15T02:17:57.364Z,94.06
2017-08-15T02:18:57.415Z,93.96
2017-08-15T02:19:57.467Z,94.64
2017-08-15T02:20:57.813Z,94.06
2017-08-15T02:21:57.571Z,94.26
2017-08-15T02:22:57.623Z,93.77
2017-08-15T02:23:57.674Z,93.49
2017-08-15T02:24:57.727Z,93.29
2017-08-15T02:25:57.780Z,93.49
2017-08-15T02:26:57.906Z,93.77
2017-08-15T02:27:57.881Z,92.91
2017-08-15T02:28:57.933Z,92.52
2017-08-15T02:29:57.990Z,92.52
2017-08-15T02:30:58.040Z,94.06
2017-08-15T02:31:58.157Z,92.52
2017-08-15T02:32:58.142Z,92.62
2017-08-15T02:33:58.192Z,92.91
2017-08-15T02:34:58.244Z,92.62
2017-08-15T02:35:58.298Z,92.52
2017-08-15T02:36:58.416Z,92.62
2017-08-15T02:37:58.402Z,92.62
2017-08-15T02:38:58.453Z,92.62
2017-08-15T02:39:58.505Z,92.33
2017-08-15T02:40:58.560Z,93.19
2017-08-15T02:41:58.903Z,92.52
2017-08-15T02:42:58.660Z,92.52
2017-08-15T02:43:58.712Z,92.91
2017-08-15T02:44:58.769Z,92.96
2017-08-15T02:45:58.816Z,92.33
2017-08-15T02:46:58.869Z,92.57
2017-08-15T02:47:58.983Z,92.43
2017-08-15T02:48:58.970Z,93.15
2017-08-15T02:49:59.023Z,93.73
2017-08-15T02:50:59.077Z,94.21
2017-08-15T02:51:59.126Z,94.49
2017-08-15T02:52:59.241Z,94.21
2017-08-15T02:53:59.232Z,95.55
2017-08-15T02:54:59.281Z,96.13
2017-08-15T02:55:59.338Z,96.70
2017-08-15T02:56:59.385Z,95.94
2017-08-15T02:57:59.500Z,95.36
2017-08-15T02:58:59.489Z,95.79
2017-08-15T02:59:59.540Z,96.08
2017-08-15T03:00:59.594Z,96.27
2017-08-15T03:01:59.644Z,96.37
2017-08-15T03:02:59.772Z,95.70
2017-08-15T03:03:59.749Z,95.60
2017-08-15T03:04:59.800Z,95.70
2017-08-15T03:05:59.851Z,95.89
2017-08-15T03:06:59.902Z,95.98
2017-08-15T03:08:00.241Z,96.47
2017-08-15T03:09:00.006Z,95.31
2017-08-15T03:10:00.063Z,96.47
2017-08-15T03:11:00.109Z,95.79
2017-08-15T03:12:00.185Z,96.27
2017-08-15T03:13:00.213Z,96.37
2017-08-15T03:14:00.325Z,97.52
2017-08-15T03:15:00.320Z,96.27
2017-08-15T03:16:00.368Z,97.24
2017-08-15T03:17:00.417Z,97.14
2017-08-15T03:18:00.469Z,97.14
2017-08-15T03:19:00.587Z,97.33
2017-08-15T03:20:00.572Z,97.04
2017-08-15T03:21:00.625Z,98.00
2017-08-15T03:22:00.680Z,97.47
2017-08-15T03:23:00.728Z,97.66
2017-08-15T03:24:00.851Z,97.61
2017-08-15T03:25:00.831Z,97.95
2017-08-15T03:26:00.883Z,97.76
2017-08-15T03:27:00.937Z,98.05
2017-08-15T03:28:00.986Z,98.10
2017-08-15T03:29:01.102Z,97.86
2017-08-15T03:30:01.089Z,98.62
2017-08-15T03:31:01.139Z,98.53
2017-08-15T03:32:01.188Z,99.58
2017-08-15T03:33:01.250Z,99.58
2017-08-15T03:34:01.358Z,99.68
2017-08-15T03:35:01.351Z,99.99
2017-08-15T03:36:01.399Z,99.99
2017-08-15T03:37:01.453Z,99.99
2017-08-15T03:38:01.498Z,99.99
2017-08-15T03:39:01.616Z,99.99
2017-08-15T03:40:01.607Z,99.99
2017-08-15T03:41:01.658Z,99.99
2017-08-15T03:42:01.706Z,99.99
2017-08-15T03:43:01.757Z,99.99
2017-08-15T03:44:01.883Z,99.99
2017-08-15T03:45:01.866Z,99.99
2017-08-15T03:46:01.917Z,99.99
2017-08-15T03:47:01.961Z,99.99
2017-08-15T03:48:02.016Z,99.96
2017-08-15T03:49:02.131Z,99.87
2017-08-15T03:50:02.180Z,99.10
2017-08-15T03:51:02.171Z,99.99
2017-08-15T03:52:02.226Z,99.01
2017-08-15T03:53:02.274Z,97.95
2017-08-15T03:54:02.324Z,97.95
2017-08-15T03:55:02.439Z,97.86
2017-08-15T03:56:02.425Z,98.62
2017-08-15T03:57:02.479Z,98.05
2017-08-15T03:58:02.528Z,98.14
2017-08-15T03:59:02.580Z,98.24
2017-08-15T04:00:02.701Z,97.66
2017-08-15T04:01:02.684Z,97.76
2017-08-15T04:02:02.732Z,97.47
2017-08-15T04:03:02.785Z,97.47
2017-08-15T04:04:02.836Z,97.09
2017-08-15T04:05:03.183Z,97.66
2017-08-15T04:06:02.939Z,97.76
2017-08-15T04:07:02.992Z,97.56
2017-08-15T04:08:03.044Z,97.86
2017-08-15T04:09:03.095Z,98.05
2017-08-15T04:10:03.151Z,98.24
2017-08-15T04:11:03.259Z,98.62
2017-08-15T04:12:03.248Z,99.39
2017-08-15T04:13:03.299Z,99.39
2017-08-15T04:14:03.351Z,99.49
2017-08-15T04:15:03.402Z,99.99
2017-08-15T04:16:03.515Z,99.96
2017-08-15T04:17:03.506Z,99.99
2017-08-15T04:18:03.555Z,99.99
2017-08-15T04:19:03.609Z,99.99
2017-08-15T04:20:03.658Z,99.99
2017-08-15T04:21:03.777Z,99.39
2017-08-15T04:22:03.759Z,99.05
2017-08-15T04:23:03.814Z,99.34
2017-08-15T04:24:03.866Z,99.29
2017-08-15T04:25:03.915Z,99.39
2017-08-15T04:26:04.033Z,99.99
2017-08-15T04:27:04.020Z,99.29
2017-08-15T04:28:04.070Z,99.68
2017-08-15T04:29:04.119Z,99.20
2017-08-15T04:30:04.171Z,99.77
2017-08-15T04:31:04.519Z,98.72
2017-08-15T04:32:04.274Z,99.49
2017-08-15T04:33:04.326Z,99.58
2017-08-15T04:34:04.375Z,99.39
2017-08-15T04:35:04.427Z,99.01
2017-08-15T04:36:04.478Z,99.10
2017-08-15T04:37:04.593Z,98.05
2017-08-15T04:38:04.582Z,98.62
2017-08-15T04:39:04.631Z,98.43
2017-08-15T04:40:04.683Z,99.49
2017-08-15T04:41:04.735Z,99.29
2017-08-15T04:42:04.876Z,99.99
2017-08-15T04:43:04.837Z,99.49
2017-08-15T04:44:04.890Z,98.33
2017-08-15T04:45:04.939Z,98.72
2017-08-15T04:46:04.988Z,99.58
2017-08-15T04:47:05.106Z,98.48
2017-08-15T04:48:05.094Z,97.81
2017-08-15T04:49:05.146Z,97.52
2017-08-15T04:50:05.195Z,98.19
2017-08-15T04:51:05.263Z,98.05
2017-08-15T04:52:05.376Z,98.48
2017-08-15T04:53:05.353Z,99.39
2017-08-15T04:54:05.402Z,98.14
2017-08-15T04:55:05.454Z,99.24
2017-08-15T04:56:05.504Z,98.00
2017-08-15T04:57:05.851Z,97.52
2017-08-15T04:58:05.606Z,98.10
2017-08-15T04:59:05.658Z,97.76
2017-08-15T05:00:05.710Z,97.33
2017-08-15T05:01:05.762Z,97.38
2017-08-15T05:02:05.813Z,97.09
2017-08-15T05:03:05.929Z,97.76
2017-08-15T05:04:05.914Z,96.42
2017-08-15T05:05:05.966Z,95.84
2017-08-15T05:06:06.018Z,95.55
2017-08-15T05:07:06.069Z,94.49
2017-08-15T05:08:06.187Z,92.33
2017-08-15T05:09:06.173Z,93.01
2017-08-15T05:10:06.225Z,92.72
2017-08-15T05:11:06.282Z,92.43
2017-08-15T05:12:06.327Z,92.43
2017-08-15T05:13:06.448Z,91.38
2017-08-15T05:14:06.451Z,92.72
2017-08-15T05:15:06.480Z,92.63
2017-08-15T05:16:06.533Z,94.26
2017-08-15T05:17:06.590Z,92.82
2017-08-15T05:18:06.700Z,91.66
2017-08-15T05:19:06.685Z,94.07
2017-08-15T05:20:06.737Z,94.26
2017-08-15T05:21:06.794Z,94.54
2017-08-15T05:22:06.841Z,91.47
2017-08-15T05:23:06.966Z,94.16
2017-08-15T05:24:06.944Z,92.33
2017-08-15T05:25:06.995Z,94.45
2017-08-15T05:26:07.048Z,93.10
2017-08-15T05:27:07.100Z,94.69
2017-08-15T05:28:07.215Z,94.07
2017-08-15T05:29:07.269Z,93.59
2017-08-15T05:30:07.254Z,92.05
2017-08-15T05:31:07.304Z,93.20
2017-08-15T05:32:07.358Z,91.47
2017-08-15T05:33:07.409Z,92.29
2017-08-15T05:34:07.532Z,92.00
2017-08-15T05:35:07.511Z,90.84
2017-08-15T05:36:07.574Z,90.27
2017-08-15T05:37:07.614Z,91.23
2017-08-15T05:38:07.675Z,91.42
2017-08-15T05:39:07.791Z,91.56
2017-08-15T05:40:07.769Z,93.19
2017-08-15T05:41:12.107Z,90.51
2017-08-15T05:42:10.475Z,90.31
2017-08-15T05:43:07.925Z,90.51
2017-08-15T05:44:08.045Z,90.41
2017-08-15T05:45:12.432Z,89.26
2017-08-15T05:46:10.354Z,89.16
2017-08-15T05:47:08.132Z,89.54
2017-08-15T05:48:08.184Z,89.21
2017-08-15T05:49:08.238Z,89.40
2017-08-15T05:50:08.351Z,89.11
2017-08-15T05:51:08.339Z,89.40
2017-08-15T05:52:08.391Z,88.92
2017-08-15T05:53:08.992Z,88.53
2017-08-15T05:54:08.494Z,88.92
2017-08-15T05:55:08.622Z,88.82
2017-08-15T05:56:08.601Z,89.11
2017-08-15T05:57:08.652Z,88.67
2017-08-15T05:58:08.707Z,89.35
2017-08-15T05:59:08.756Z,89.06
2017-08-15T06:00:08.875Z,89.54
2017-08-15T06:01:08.861Z,90.31
2017-08-15T06:02:08.911Z,90.31
2017-08-15T06:03:08.962Z,89.73
2017-08-15T06:04:09.014Z,89.83
2017-08-15T06:05:09.142Z,88.77
2017-08-15T06:06:09.117Z,87.85
2017-08-15T06:07:09.175Z,88.62
2017-08-15T06:08:09.224Z,87.56
2017-08-15T06:09:09.284Z,87.18
2017-08-15T06:10:09.618Z,84.97
2017-08-15T06:11:09.379Z,85.97
2017-08-15T06:12:09.434Z,83.18
2017-08-15T06:13:09.490Z,82.21
2017-08-15T06:14:09.537Z,83.37
2017-08-15T06:15:09.592Z,82.70
2017-08-15T06:16:09.707Z,81.16
2017-08-15T06:17:09.695Z,82.02
2017-08-15T06:18:09.747Z,80.87
2017-08-15T06:19:09.798Z,81.06
2017-08-15T06:20:09.852Z,81.35
2017-08-15T06:21:09.969Z,80.38
2017-08-15T06:22:09.955Z,80.58
2017-08-15T06:23:10.008Z,81.35
2017-08-15T06:24:10.064Z,80.29
2017-08-15T06:25:10.114Z,80.48
2017-08-15T06:26:10.231Z,81.25
2017-08-15T06:27:10.223Z,79.81
2017-08-15T06:28:10.272Z,80.48
2017-08-15T06:29:10.326Z,79.81
2017-08-15T06:30:10.387Z,80.10
2017-08-15T06:31:10.496Z,80.48
2017-08-15T06:32:10.484Z,80.29
2017-08-15T06:33:10.536Z,80.43
2017-08-15T06:34:10.587Z,80.91
2017-08-15T06:35:10.639Z,80.23
2017-08-15T06:36:10.771Z,79.66
2017-08-15T06:37:10.749Z,79.27
2017-08-15T06:38:10.798Z,78.59
2017-08-15T06:39:10.852Z,79.21
2017-08-15T06:40:10.904Z,77.58
2017-08-15T06:41:11.022Z,76.80
2017-08-15T06:42:11.079Z,75.65
2017-08-15T06:43:11.068Z,75.45
2017-08-15T06:44:11.116Z,76.71
2017-08-15T06:45:11.170Z,77.28
2017-08-15T06:46:11.225Z,76.13
2017-08-15T06:47:11.343Z,75.93
2017-08-15T06:48:11.439Z,75.97
2017-08-15T06:49:11.383Z,75.78
2017-08-15T06:50:11.435Z,73.79
2017-08-15T06:51:11.489Z,70.64
2017-08-15T06:52:11.610Z,69.26
2017-08-15T06:53:11.592Z,67.79
2017-08-15T06:54:11.647Z,66.17
2017-08-15T06:55:11.703Z,63.43
2017-08-15T06:56:11.753Z,62.88
2017-08-15T06:57:11.879Z,60.46
2017-08-15T06:58:11.859Z,60.07
2017-08-15T06:59:11.913Z,59.49
2017-08-15T07:00:11.971Z,59.46
2017-08-15T07:01:12.025Z,59.27
2017-08-15T07:02:12.141Z,60.24
2017-08-15T07:03:12.142Z,60.30
2017-08-15T07:04:12.189Z,59.75
2017-08-15T07:05:12.240Z,58.23
2017-08-15T07:06:12.297Z,56.57
2017-08-15T07:07:12.417Z,55.33
2017-08-15T07:08:12.406Z,54.17
2017-08-15T07:09:12.457Z,53.69
2017-08-15T07:10:12.512Z,54.44
2017-08-15T07:11:12.569Z,54.36
2017-08-15T07:12:12.708Z,54.36
2017-08-15T07:13:12.679Z,54.17
2017-08-15T07:14:12.733Z,55.67
2017-08-15T07:15:12.792Z,56.25
2017-08-15T07:16:12.841Z,55.60
2017-08-15T07:17:12.967Z,55.36
2017-08-15T07:18:12.950Z,53.83
2017-08-15T07:19:13.007Z,54.94
2017-08-15T07:20:13.064Z,53.83
2017-08-15T07:21:13.119Z,53.22
2017-08-15T07:22:13.243Z,51.99
2017-08-15T07:23:13.304Z,52.31
2017-08-15T07:24:13.287Z,49.97
2017-08-15T07:25:13.342Z,49.56
2017-08-15T07:26:13.397Z,50.51
2017-08-15T07:27:13.456Z,52.86
2017-08-15T07:28:13.579Z,53.74
2017-08-15T07:29:13.573Z,50.53
2017-08-15T07:30:13.619Z,52.45
2017-08-15T07:31:13.676Z,54.00
2017-08-15T07:32:13.736Z,53.13
2017-08-15T07:33:13.851Z,53.25
2017-08-15T07:34:13.848Z,53.08
2017-08-15T07:35:13.901Z,51.82
2017-08-15T07:36:13.956Z,51.84
2017-08-15T07:37:14.016Z,51.17
2017-08-15T07:38:14.158Z,52.21
2017-08-15T07:39:14.125Z,51.99
2017-08-15T07:40:14.187Z,53.13
2017-08-15T07:41:14.238Z,55.00
2017-08-15T07:42:14.293Z,54.52
2017-08-15T07:43:14.414Z,54.64
2017-08-15T07:44:14.474Z,54.38
2017-08-15T07:45:14.464Z,52.36
2017-08-15T07:46:14.519Z,51.94
2017-08-15T07:47:14.581Z,51.12
2017-08-15T07:48:14.632Z,50.38
2017-08-15T07:49:14.756Z,52.64
2017-08-15T07:50:14.750Z,53.83
2017-08-15T07:51:14.798Z,52.89
2017-08-15T07:52:14.861Z,52.84
2017-08-15T07:53:14.919Z,54.42
2017-08-15T07:54:15.036Z,54.35
2017-08-15T07:55:15.030Z,53.35
2017-08-15T07:56:15.091Z,54.00
2017-08-15T07:57:15.144Z,54.75
2017-08-15T07:58:15.198Z,55.92
2017-08-15T07:59:15.340Z,54.61
2017-08-15T08:00:15.310Z,52.89
2017-08-15T08:01:15.369Z,52.31
2017-08-15T08:02:15.423Z,53.16
2017-08-15T08:03:15.486Z,53.47
2017-08-15T08:04:15.610Z,52.43
2017-08-15T08:05:15.597Z,51.92
2017-08-15T08:06:15.655Z,52.76
2017-08-15T08:07:15.709Z,54.22
2017-08-15T08:08:15.766Z,53.77
2017-08-15T08:09:15.892Z,54.15
2017-08-15T08:10:15.944Z,54.93
2017-08-15T08:11:15.937Z,53.64
2017-08-15T08:12:15.994Z,53.45
2017-08-15T08:13:16.054Z,55.14
2017-08-15T08:14:16.104Z,55.46
2017-08-15T08:15:16.231Z,54.74
2017-08-15T08:16:16.227Z,54.13
2017-08-15T08:17:16.282Z,55.88
2017-08-15T08:18:16.333Z,54.22
2017-08-15T08:19:16.390Z,53.38
2017-08-15T08:20:16.514Z,52.43
2017-08-15T08:21:16.510Z,53.06
2017-08-15T08:22:16.562Z,50.97
2017-08-15T08:23:16.619Z,52.72
2017-08-15T08:24:16.677Z,53.42
2017-08-15T08:25:16.818Z,52.38
2017-08-15T08:26:16.792Z,50.41
2017-08-15T08:27:16.847Z,52.96
2017-08-15T08:28:16.904Z,53.64
2017-08-15T08:29:16.961Z,53.86
2017-08-15T08:30:17.084Z,54.25
2017-08-15T08:31:17.141Z,53.86
2017-08-15T08:32:17.135Z,54.42
2017-08-15T08:33:17.196Z,55.64
2017-08-15T08:34:17.249Z,54.69
2017-08-15T08:35:17.306Z,54.30
2017-08-15T08:36:17.431Z,54.38
2017-08-15T08:37:17.421Z,54.86
2017-08-15T08:38:17.477Z,54.60
2017-08-15T08:39:17.537Z,54.11
2017-08-15T08:40:17.593Z,55.60
2017-08-15T08:41:17.718Z,52.87
2017-08-15T08:42:17.709Z,53.81
2017-08-15T08:43:17.765Z,55.00
2017-08-15T08:44:17.825Z,55.58
2017-08-15T08:45:17.881Z,58.21
2017-08-15T08:46:18.002Z,57.17
2017-08-15T08:47:17.998Z,57.39
2017-08-15T08:48:18.059Z,55.69
2017-08-15T08:49:18.115Z,55.18
2017-08-15T08:50:18.178Z,55.40
2017-08-15T08:51:18.311Z,53.38
2017-08-15T08:52:18.283Z,52.14
2017-08-15T08:53:18.348Z,51.95
2017-08-15T08:54:18.401Z,52.99
2017-08-15T08:55:18.457Z,53.36
2017-08-15T08:56:18.592Z,54.06
2017-08-15T08:57:18.574Z,53.79
2017-08-15T08:58:18.631Z,55.01
2017-08-15T08:59:18.690Z,55.76
2017-08-15T09:00:18.747Z,58.39
2017-08-15T09:01:18.871Z,60.28
2017-08-15T09:02:18.938Z,61.15
2017-08-15T09:03:18.922Z,60.83
2017-08-15T09:04:18.981Z,61.93
2017-08-15T09:05:19.041Z,60.31
2017-08-15T09:06:19.102Z,60.79
2017-08-15T09:07:19.219Z,63.16
2017-08-15T09:08:19.215Z,62.51
2017-08-15T09:09:19.272Z,62.74
2017-08-15T09:10:19.329Z,62.03
2017-08-15T09:11:19.389Z,61.96
2017-08-15T09:12:19.512Z,62.19
2017-08-15T09:13:19.505Z,59.85
2017-08-15T09:14:19.562Z,59.69
2017-08-15T09:15:19.622Z,60.39
2017-08-15T09:16:19.679Z,59.74
2017-08-15T09:17:19.813Z,58.35
2017-08-15T09:18:19.801Z,60.34
2017-08-15T09:19:19.853Z,60.70
2017-08-15T09:20:19.915Z,63.03
2017-08-15T09:21:19.976Z,61.25
2017-08-15T09:22:20.095Z,63.29
2017-08-15T09:23:20.160Z,63.52
2017-08-15T09:24:20.149Z,65.46
2017-08-15T09:25:20.205Z,63.65
2017-08-15T09:26:20.266Z,61.31
2017-08-15T09:27:20.325Z,61.08
2017-08-15T09:28:20.451Z,62.45
2017-08-15T09:29:20.442Z,63.26
2017-08-15T09:30:20.499Z,62.09
2017-08-15T09:31:20.561Z,62.06
2017-08-15T09:32:20.619Z,62.16
2017-08-15T09:33:20.742Z,65.30
2017-08-15T09:34:20.732Z,64.45
2017-08-15T09:35:20.792Z,60.20
2017-08-15T09:36:20.855Z,59.45
2017-08-15T09:37:20.909Z,58.74
2017-08-15T09:38:21.048Z,61.89
2017-08-15T09:39:21.026Z,59.45
2017-08-15T09:40:21.097Z,58.77
2017-08-15T09:41:21.146Z,57.53
2017-08-15T09:42:21.202Z,55.90
2017-08-15T09:43:21.331Z,57.00
2017-08-15T09:44:21.396Z,56.02
2017-08-15T09:45:21.384Z,58.66
2017-08-15T09:46:21.442Z,55.80
2017-08-15T09:47:21.503Z,57.99
2017-08-15T09:48:21.560Z,61.11
2017-08-15T09:49:21.702Z,58.35
2017-08-15T09:50:21.678Z,59.33
2017-08-15T09:51:21.737Z,59.23
2017-08-15T09:52:21.796Z,58.67
2017-08-15T09:53:21.856Z,59.03
2017-08-15T09:54:21.979Z,59.88
2017-08-15T09:55:21.978Z,58.51
2017-08-15T09:56:22.035Z,59.46
2017-08-15T09:57:22.095Z,64.17
2017-08-15T09:58:22.152Z,63.12
2017-08-15T09:59:22.286Z,61.89
2017-08-15T10:00:22.274Z,59.67
2017-08-15T10:01:22.335Z,57.79
2017-08-15T10:02:22.394Z,58.45
2017-08-15T10:03:22.451Z,55.72
2017-08-15T10:04:22.595Z,57.99
2017-08-15T10:05:22.570Z,58.74
2017-08-15T10:06:22.633Z,57.21
2017-08-15T10:07:22.686Z,59.74
2017-08-15T10:08:22.749Z,58.18
2017-08-15T10:09:22.901Z,59.45
2017-08-15T10:10:22.866Z,58.18
2017-08-15T10:11:22.925Z,57.76
2017-08-15T10:12:22.985Z,60.36
2017-08-15T10:13:23.053Z,61.44
2017-08-15T10:14:23.173Z,59.78
2017-08-15T10:15:23.233Z,60.82
2017-08-15T10:16:23.229Z,62.57
2017-08-15T10:17:23.284Z,63.06
2017-08-15T10:18:23.343Z,62.35
2017-08-15T10:19:23.400Z,62.84
2017-08-15T10:20:23.526Z,64.39
2017-08-15T10:21:23.520Z,64.29
2017-08-15T10:22:23.582Z,63.10
2017-08-15T10:23:23.642Z,63.97
2017-08-15T10:24:23.700Z,63.49
2017-08-15T10:25:23.826Z,65.14
2017-08-15T10:26:23.815Z,63.20
2017-08-15T10:27:23.874Z,63.29
2017-08-15T10:28:23.937Z,66.50
2017-08-15T10:29:23.997Z,65.23
2017-08-15T10:30:24.118Z,65.04
2017-08-15T10:31:24.110Z,64.39
2017-08-15T10:32:24.174Z,64.39
2017-08-15T10:33:24.231Z,63.62
2017-08-15T10:34:24.290Z,64.07
2017-08-15T10:35:24.422Z,63.62
2017-08-15T10:36:24.407Z,63.65
2017-08-15T10:37:24.469Z,64.72
2017-08-15T10:38:24.527Z,66.11
2017-08-15T10:39:24.586Z,63.90
2017-08-15T10:40:24.715Z,62.13
2017-08-15T10:41:24.701Z,63.10
2017-08-15T10:42:24.761Z,61.22
2017-08-15T10:43:24.817Z,62.35
2017-08-15T10:44:24.877Z,64.78
2017-08-15T10:45:25.021Z,63.07
2017-08-15T10:46:24.996Z,63.87
2017-08-15T10:47:25.051Z,63.16
2017-08-15T10:48:25.111Z,60.95
2017-08-15T10:49:25.170Z,55.40
2017-08-15T10:50:25.291Z,56.18
2017-08-15T10:51:25.355Z,58.49
2017-08-15T10:52:25.347Z,59.05
2017-08-15T10:53:25.404Z,61.02
2017-08-15T10:54:25.462Z,59.33
2017-08-15T10:55:25.524Z,59.95
2017-08-15T10:56:25.644Z,58.32
2017-08-15T10:57:25.640Z,58.25
2017-08-15T10:58:25.697Z,56.01
2017-08-15T10:59:25.756Z,56.30
2017-08-15T11:00:25.819Z,58.81
2017-08-15T11:01:25.961Z,59.72
2017-08-15T11:02:25.936Z,63.10
2017-08-15T11:03:25.993Z,63.87
2017-08-15T11:04:26.052Z,63.07
2017-08-15T11:05:26.112Z,64.65
2017-08-15T11:06:26.244Z,63.59
2017-08-15T11:07:26.228Z,61.05
2017-08-15T11:08:26.289Z,61.38
2017-08-15T11:09:26.348Z,59.99
2017-08-15T11:10:26.405Z,59.76
2017-08-15T11:11:26.550Z,61.19
2017-08-15T11:12:26.527Z,62.55
2017-08-15T11:13:26.592Z,63.91
2017-08-15T11:14:26.642Z,63.36
2017-08-15T11:15:26.706Z,62.13
2017-08-15T11:16:26.827Z,59.23
2017-08-15T11:17:26.884Z,57.90
2017-08-15T11:18:26.878Z,55.44
2017-08-15T11:19:26.937Z,59.82
2017-08-15T11:20:26.997Z,59.05
2017-08-15T11:21:27.057Z,59.05
2017-08-15T11:22:27.700Z,59.05
2017-08-15T11:23:27.173Z,59.95
2017-08-15T11:24:27.230Z,59.00
2017-08-15T11:25:27.290Z,59.00
2017-08-15T11:26:27.350Z,56.54
2017-08-15T11:27:27.479Z,58.95
2017-08-15T11:28:27.494Z,62.74
2017-08-15T11:29:27.529Z,61.96
2017-08-15T11:30:27.586Z,60.92
2017-08-15T11:31:27.645Z,60.34
2017-08-15T11:32:27.783Z,59.66
2017-08-15T11:33:27.765Z,60.82
2017-08-15T11:34:27.833Z,61.41
2017-08-15T11:35:27.882Z,59.95
2017-08-15T11:36:27.948Z,58.39
2017-08-15T11:37:28.081Z,59.95
2017-08-15T11:38:28.127Z,58.71
2017-08-15T11:39:28.121Z,59.72
2017-08-15T11:40:28.178Z,63.13
2017-08-15T11:41:28.239Z,63.78
2017-08-15T11:42:28.300Z,61.18
2017-08-15T11:43:28.426Z,57.61
2017-08-15T11:44:28.427Z,59.33
2017-08-15T11:45:28.485Z,61.05
2017-08-15T11:46:28.541Z,61.05
2017-08-15T11:47:28.601Z,61.38
2017-08-15T11:48:28.725Z,58.95
2017-08-15T11:49:28.721Z,59.43
2017-08-15T11:50:28.778Z,60.82
2017-08-15T11:51:28.840Z,59.69
2017-08-15T11:52:28.898Z,60.44
2017-08-15T11:53:29.041Z,59.69
2017-08-15T11:54:29.014Z,59.33
2017-08-15T11:55:29.076Z,61.35
2017-08-15T11:56:29.136Z,61.19
2017-08-15T11:57:29.203Z,65.72
2017-08-15T11:58:29.319Z,68.21
2017-08-15T11:59:29.378Z,69.48
2017-08-15T12:00:29.385Z,69.38
2017-08-15T12:01:29.439Z,67.14
2017-08-15T12:02:29.491Z,69.32
2017-08-15T12:03:29.554Z,68.48
2017-08-15T12:04:29.688Z,66.24
2017-08-15T12:05:29.673Z,68.02
2017-08-15T12:06:29.730Z,66.72
2017-08-15T12:07:29.790Z,68.38
2017-08-15T12:08:29.852Z,67.54
2017-08-15T12:09:29.991Z,65.72
2017-08-15T12:10:29.966Z,66.89
2017-08-15T12:11:30.027Z,69.38
2017-08-15T12:12:30.086Z,70.93
2017-08-15T12:13:30.145Z,71.55
2017-08-15T12:14:30.280Z,69.86
2017-08-15T12:15:30.332Z,71.16
2017-08-15T12:16:30.325Z,68.63
2017-08-15T12:17:30.386Z,69.06
2017-08-15T12:18:30.444Z,67.96
2017-08-15T12:19:30.501Z,65.72
2017-08-15T12:20:30.625Z,67.99
2017-08-15T12:21:30.620Z,66.17
2017-08-15T12:22:30.678Z,66.53
2017-08-15T12:23:30.743Z,65.40
2017-08-15T12:24:30.797Z,66.11
2017-08-15T12:25:30.923Z,65.01
2017-08-15T12:26:30.916Z,65.92
2017-08-15T12:27:30.979Z,62.80
2017-08-15T12:28:31.036Z,61.24
2017-08-15T12:29:31.095Z,62.05
2017-08-15T12:30:31.221Z,62.35
2017-08-15T12:31:31.214Z,61.47
2017-08-15T12:32:31.281Z,59.16
2017-08-15T12:33:31.338Z,59.84
2017-08-15T12:34:31.397Z,59.28
2017-08-15T12:35:31.522Z,56.01
2017-08-15T12:36:31.516Z,59.13
2017-08-15T12:37:31.581Z,59.98
2017-08-15T12:38:31.638Z,56.22
2017-08-15T12:39:31.698Z,55.93
2017-08-15T12:40:31.824Z,58.26
2017-08-15T12:41:31.823Z,57.29
2017-08-15T12:42:31.880Z,58.65
2017-08-15T12:43:31.940Z,60.02
2017-08-15T12:44:32.005Z,59.56
2017-08-15T12:45:32.143Z,59.07
2017-08-15T12:46:32.121Z,58.20
2017-08-15T12:47:32.184Z,59.30
2017-08-15T12:48:32.246Z,58.35
2017-08-15T12:49:32.309Z,59.16
2017-08-15T12:50:32.445Z,55.58
2017-08-15T12:51:32.428Z,56.00
2017-08-15T12:52:32.487Z,54.24
2017-08-15T12:53:32.549Z,53.17